Weather reports worldwide

Advertisment
Xinzo De Limia, Spain (8050): temperature & dewpoint: 02.08.2020 06:00:00 - 08.08.2020 06:00:00 (CEST)Xinzo De Limia, Spain (8050): wind speed & gusts: 02.08.2020 06:00:00 - 08.08.2020 06:00:00 (CEST)Xinzo De Limia, Spain (8050): wind direction: 02.08.2020 06:00:00 - 08.08.2020 06:00:00 (CEST)Xinzo De Limia, Spain (8050): precipitation: 02.08.2020 06:00:00 - 08.08.2020 06:00:00 (CEST)
Date & Time tt [°C] td [°C] ff [km/h] ff [kn] fx [km/h] fx [kn] dd rr [mm]
08.08.2020 06:00:00 - - - - - - - -
08.08.2020 05:00:00 13,4 11,4 0 0 3 2 N 0,0
08.08.2020 04:00:00 14,4 11,6 0 0 5 3 N 0,0
08.08.2020 03:00:00 16,1 12,4 3 2 5 3 S 0,0
08.08.2020 02:00:00 17,8 13,4 4 2 7 4 SSW -
08.08.2020 01:00:00 19,1 13,3 3 2 9 5 SSW 0,0
08.08.2020 00:00:00 20,8 12,2 4 2 8 5 WSW 0,0
07.08.2020 23:00:00 22,8 12,1 5 3 12 6 NW 0,0
07.08.2020 22:00:00 25,4 11,6 4 2 16 9 W 0,0
07.08.2020 21:00:00 28,7 11,3 11 6 23 12 NW 0,0
07.08.2020 20:00:00 31,5 13,3 12 7 24 13 NNW -
07.08.2020 19:00:00 32,7 12,8 11 6 22 12 NW 0,0
07.08.2020 18:00:00 33,5 13,6 9 5 24 13 WNW 0,0
07.08.2020 17:00:00 33,9 14,4 13 7 33 18 WNW 0,0
07.08.2020 16:00:00 33,7 15,2 12 7 27 14 N 0,0
07.08.2020 15:00:00 32,3 14,9 14 7 23 12 N 0,0
07.08.2020 14:00:00 31,2 15,2 7 4 18 10 N -
07.08.2020 13:00:00 30,3 14,4 8 4 16 9 N 0,0
07.08.2020 12:00:00 28,3 15,9 6 4 17 9 NE 0,0
07.08.2020 11:00:00 25,3 14,7 8 4 11 6 NNE 0,0
07.08.2020 10:00:00 21,3 14,4 2 1 7 4 E 0,0
07.08.2020 09:00:00 16,4 14,4 1 1 3 2 ENE 0,0
07.08.2020 08:00:00 13,0 11,1 1 0 3 2 NNW -
07.08.2020 07:00:00 13,3 10,6 0 0 4 2 N 0,0
07.08.2020 06:00:00 14,9 11,7 2 1 7 4 S 0,0
07.08.2020 05:00:00 15,7 12,1 4 2 9 5 SW 0,0
07.08.2020 04:00:00 15,6 11,3 1 0 3 2 W 0,0
07.08.2020 03:00:00 17,6 12,1 3 2 9 5 SW 0,0
07.08.2020 02:00:00 18,3 12,3 4 2 8 4 SSW -
07.08.2020 01:00:00 19,7 12,0 4 2 6 4 SW 0,0
07.08.2020 00:00:00 21,4 11,4 3 2 11 6 S 0,0
06.08.2020 23:00:00 24,4 11,3 6 3 13 7 W 0,0
06.08.2020 22:00:00 26,5 12,5 3 2 18 10 NNE 0,0
06.08.2020 21:00:00 29,8 13,2 8 4 23 12 NW 0,0
06.08.2020 20:00:00 33,2 13,3 11 6 23 12 W -
06.08.2020 19:00:00 34,6 12,8 14 8 27 15 NW 0,0
06.08.2020 18:00:00 35,6 11,9 15 8 26 14 WNW 0,0
06.08.2020 17:00:00 - - - - - - - -
06.08.2020 16:00:00 38,3 11,3 14 8 34 19 SSE 0,0
06.08.2020 15:00:00 37,1 11,1 14 7 28 15 SSE 0,0
06.08.2020 14:00:00 35,8 10,8 13 7 35 19 S -
06.08.2020 13:00:00 34,6 10,4 16 9 37 20 SE 0,0
06.08.2020 12:00:00 32,2 10,9 16 9 26 14 SE 0,0
06.08.2020 11:00:00 27,3 13,3 1 1 14 7 ESE 0,0
06.08.2020 10:00:00 18,8 16,2 4 2 8 4 SW 0,0
06.08.2020 09:00:00 14,3 12,8 0 0 13 7 S 0,0
06.08.2020 08:00:00 10,2 8,8 0 0 2 1 N -
06.08.2020 07:00:00 10,5 8,8 0 0 4 2 N 0,0
06.08.2020 06:00:00 11,4 9,7 0 0 4 2 W 0,0
06.08.2020 05:00:00 12,2 10,0 0 0 0 0 WNW 0,0
06.08.2020 04:00:00 13,2 10,5 0 0 4 2 N 0,0
06.08.2020 03:00:00 15,1 11,4 1 0 4 2 SW 0,0
06.08.2020 02:00:00 17,4 12,1 3 1 7 4 SSW -
06.08.2020 01:00:00 19,2 12,6 3 1 8 4 SW 0,0
06.08.2020 00:00:00 20,6 12,0 5 3 9 5 SSW 0,0
05.08.2020 23:00:00 23,4 11,8 7 4 12 7 W 0,0
05.08.2020 22:00:00 26,0 11,0 7 4 16 9 WNW 0,0
05.08.2020 21:00:00 29,7 10,8 11 6 24 13 NW 0,0
05.08.2020 20:00:00 32,4 10,4 13 7 23 12 NW -
05.08.2020 19:00:00 33,8 9,2 13 7 23 12 NW 0,0
05.08.2020 18:00:00 34,0 8,5 10 5 23 12 N 0,0
05.08.2020 17:00:00 33,9 9,2 10 5 23 12 NNE 0,0
05.08.2020 16:00:00 33,3 10,0 13 7 23 13 N 0,0
05.08.2020 15:00:00 32,9 9,0 4 2 16 9 N 0,0
05.08.2020 14:00:00 32,5 9,3 8 4 13 7 NNW -
05.08.2020 13:00:00 30,8 9,0 5 3 16 8 S 0,0
05.08.2020 12:00:00 29,0 9,7 6 3 19 10 SE 0,0
05.08.2020 11:00:00 22,8 11,2 1 1 6 3 NNW 0,0
05.08.2020 10:00:00 17,3 11,6 0 0 4 2 ENE 0,0
05.08.2020 09:00:00 11,6 10,0 0 0 3 1 N 0,0
05.08.2020 08:00:00 6,8 5,1 0 0 5 3 N -
05.08.2020 07:00:00 7,6 5,9 3 1 5 3 SSW 0,0
05.08.2020 06:00:00 7,7 5,6 0 0 2 1 N 0,0
05.08.2020 05:00:00 8,9 6,7 0 0 5 3 WNW 0,0
05.08.2020 04:00:00 9,9 6,8 0 0 3 2 N 0,0
05.08.2020 03:00:00 11,4 7,1 0 0 5 3 N 0,0
05.08.2020 02:00:00 13,5 7,7 3 1 8 4 SSW -
05.08.2020 01:00:00 15,6 7,6 5 3 10 5 SW 0,0
05.08.2020 00:00:00 16,6 7,0 0 0 10 5 WNW 0,0
04.08.2020 23:00:00 19,4 6,5 6 4 11 6 SW 0,0
04.08.2020 22:00:00 22,8 6,1 6 4 9 5 NNW 0,0
04.08.2020 21:00:00 28,5 5,9 6 3 19 10 NNW 0,0
04.08.2020 20:00:00 29,6 5,6 13 7 22 12 NNW -
04.08.2020 19:00:00 30,0 4,6 10 6 24 13 NNW 0,0
04.08.2020 18:00:00 30,6 5,1 9 5 23 12 NNW 0,0
04.08.2020 17:00:00 29,9 7,1 9 5 22 12 NNW 0,0
04.08.2020 16:00:00 29,0 8,7 10 5 21 11 N 0,0
04.08.2020 15:00:00 28,2 9,9 9 5 18 10 NNE 0,0
04.08.2020 14:00:00 26,6 10,3 7 4 16 9 NNE -
04.08.2020 13:00:00 24,9 12,1 5 3 17 9 N 0,0
04.08.2020 12:00:00 22,2 13,1 4 2 16 9 ENE 0,0
04.08.2020 11:00:00 18,8 13,3 4 2 11 6 NE 0,0
04.08.2020 10:00:00 16,0 13,7 3 1 10 5 ESE 0,0
04.08.2020 09:00:00 14,3 12,5 4 2 9 5 NE 0,0
04.08.2020 08:00:00 13,9 12,3 1 1 6 4 NE -
04.08.2020 07:00:00 14,0 12,4 0 0 9 5 NNE 0,0
04.08.2020 06:00:00 13,9 12,3 3 2 8 4 N 0,0
04.08.2020 05:00:00 13,8 12,2 3 2 11 6 WNW 0,0
04.08.2020 04:00:00 13,4 11,7 4 2 12 7 W 0,0
04.08.2020 03:00:00 14,0 12,0 5 3 10 5 WNW 0,0
04.08.2020 02:00:00 14,5 12,3 6 4 16 8 NW -
04.08.2020 01:00:00 15,2 12,3 5 3 11 6 NW 0,0
04.08.2020 00:00:00 16,2 12,7 9 5 23 12 N 0,0
03.08.2020 23:00:00 17,9 12,5 10 6 18 10 NNW 0,0
03.08.2020 22:00:00 19,7 11,2 10 5 22 12 NW 0,0
03.08.2020 21:00:00 22,9 10,3 13 7 26 14 NW 0,0
03.08.2020 20:00:00 24,4 10,6 18 10 34 18 NW -
03.08.2020 19:00:00 25,5 10,5 16 9 30 16 NW 0,0
03.08.2020 18:00:00 26,3 11,2 12 7 28 15 NNW 0,0
03.08.2020 17:00:00 26,4 11,3 12 7 27 15 NNW 0,0
03.08.2020 16:00:00 26,2 11,6 12 7 31 17 NNW 0,0
03.08.2020 15:00:00 25,4 11,6 13 7 27 15 N 0,0
03.08.2020 14:00:00 24,5 11,4 11 6 21 11 N -
03.08.2020 13:00:00 22,6 9,4 9 5 21 11 N 0,0
03.08.2020 12:00:00 21,6 7,8 14 7 23 12 N 0,0
03.08.2020 11:00:00 19,6 4,8 10 5 15 8 N 0,0
03.08.2020 10:00:00 15,0 13,1 3 1 7 4 NE 0,0
03.08.2020 09:00:00 11,3 10,0 0 0 5 3 N 0,0
03.08.2020 08:00:00 8,6 7,0 0 0 8 4 W -
03.08.2020 07:00:00 9,4 7,7 0 0 7 4 N 0,0
03.08.2020 06:00:00 10,5 8,4 3 1 7 4 WSW 0,0
03.08.2020 05:00:00 11,7 9,3 1 1 13 7 ENE 0,0
03.08.2020 04:00:00 12,7 10,0 6 3 10 5 NW 0,0
03.08.2020 03:00:00 13,5 10,5 3 1 13 7 SW 0,0
03.08.2020 02:00:00 14,6 11,3 8 4 16 8 WNW -
03.08.2020 01:00:00 15,2 11,6 8 4 16 9 NW 0,0
03.08.2020 00:00:00 16,9 11,6 8 5 18 10 WNW 0,0
02.08.2020 23:00:00 18,2 9,0 9 5 18 10 NW 0,0
02.08.2020 22:00:00 19,6 7,0 10 5 21 11 NNW 0,0
02.08.2020 21:00:00 21,7 7,1 14 7 27 15 N 0,0
02.08.2020 20:00:00 24,6 7,3 13 7 30 16 N -
02.08.2020 19:00:00 25,6 6,7 18 10 32 17 N 0,0
02.08.2020 18:00:00 25,6 7,7 19 11 32 17 NNW 0,0
02.08.2020 17:00:00 26,0 8,9 14 8 26 14 NNW 0,0
02.08.2020 16:00:00 24,7 9,4 16 9 27 15 NNW 0,0
02.08.2020 15:00:00 24,2 9,8 12 7 25 13 NNW 0,0
02.08.2020 14:00:00 23,3 10,0 14 7 23 13 NNW -
02.08.2020 13:00:00 21,6 10,2 9 5 21 11 NW 0,0
02.08.2020 12:00:00 19,5 9,7 9 5 16 9 N 0,0
02.08.2020 11:00:00 17,1 11,1 3 2 17 9 NNW 0,0
02.08.2020 10:00:00 14,6 10,8 7 4 13 7 WNW 0,0
02.08.2020 09:00:00 13,8 10,8 4 2 11 6 NW 0,0
02.08.2020 08:00:00 13,5 10,9 5 3 15 8 WNW -
02.08.2020 07:00:00 13,7 11,2 4 2 12 7 NW 0,0
02.08.2020 06:00:00 13,9 11,6 5 3 11 6 NW 0,0

tt = temperature
td = dewpoint
ff = wind speed
fx = gusts
dd = wind direction
rr = precipitation

Next stations